TimeEDT,TemperatureF,Dew PointF,Humidity,Sea Level PressureIn,VisibilityMPH,Wind Direction,Wind SpeedMPH,Gust SpeedMPH,PrecipitationIn,Events,Conditions,WindDirDegrees,DateUTC
12:53 AM,43.0,39.9,89,29.96,10.0,NNE,4.6,-,N/A,,Clear,30,2012-10-01 04:53:00
1:53 AM,45.0,42.1,90,29.96,10.0,Calm,Calm,-,N/A,,Clear,0,2012-10-01 05:53:00
2:53 AM,45.0,43.0,93,29.96,8.0,West,3.5,-,N/A,,Clear,260,2012-10-01 06:53:00
2:59 AM,42.8,42.8,100,29.95,2.5,Calm,Calm,-,N/A,,Partly Cloudy,0,2012-10-01 06:59:00
3:11 AM,44.6,42.8,93,29.94,1.5,Calm,Calm,-,N/A,,Partly Cloudy,0,2012-10-01 07:11:00
3:17 AM,44.6,42.8,93,29.94,4.0,Calm,Calm,-,N/A,,Partly Cloudy,0,2012-10-01 07:17:00
3:26 AM,42.8,41.0,93,29.94,1.8,West,3.5,-,N/A,,Partly Cloudy,260,2012-10-01 07:26:00
3:32 AM,42.8,41.0,93,29.94,1.0,West,4.6,-,N/A,,Mist,260,2012-10-01 07:32:00
3:39 AM,42.8,41.0,93,29.94,0.5,Calm,Calm,-,N/A,Fog,Fog,0,2012-10-01 07:39:00
3:51 AM,41.0,39.2,93,29.94,0.5,West,5.8,-,N/A,Fog,Fog,270,2012-10-01 07:51:00
3:53 AM,41.0,39.9,96,29.95,0.5,West,5.8,-,N/A,Fog,Fog,270,2012-10-01 07:53:00
4:12 AM,41.0,39.2,93,29.94,1.8,West,4.6,-,N/A,,Mostly Cloudy,260,2012-10-01 08:12:00
4:18 AM,41.0,39.2,93,29.94,3.0,WSW,5.8,-,N/A,,Mostly Cloudy,240,2012-10-01 08:18:00
4:29 AM,41.0,39.2,93,29.94,2.5,West,4.6,-,N/A,,Scattered Clouds,260,2012-10-01 08:29:00
4:32 AM,39.2,39.2,100,29.94,1.8,West,4.6,-,N/A,,Mostly Cloudy,260,2012-10-01 08:32:00
4:45 AM,41.0,39.2,93,29.94,2.0,West,5.8,-,N/A,,Mostly Cloudy,260,2012-10-01 08:45:00
4:49 AM,41.0,39.2,93,29.94,0.8,WSW,5.8,-,N/A,,Mist,250,2012-10-01 08:49:00
4:53 AM,41.0,39.9,96,29.95,0.5,WSW,5.8,-,N/A,Fog,Fog,250,2012-10-01 08:53:00
5:24 AM,41.0,39.2,93,29.94,1.0,Calm,Calm,-,N/A,,Mist,0,2012-10-01 09:24:00
5:48 AM,39.2,39.2,100,29.94,0.5,SW,3.5,-,N/A,Fog,Fog,230,2012-10-01 09:48:00
5:53 AM,39.9,39.0,97,29.95,0.2,SW,3.5,-,N/A,Fog,Fog,220,2012-10-01 09:53:00
6:39 AM,39.2,39.2,100,29.95,1.0,SW,3.5,-,N/A,,Mist,220,2012-10-01 10:39:00
6:42 AM,39.2,39.2,100,29.95,3.0,SSW,3.5,-,N/A,,Mostly Cloudy,210,2012-10-01 10:42:00
6:53 AM,39.0,37.0,93,29.96,10.0,Calm,Calm,-,N/A,,Scattered Clouds,0,2012-10-01 10:53:00
7:17 AM,39.2,37.4,93,29.95,10.0,West,3.5,-,N/A,,Mostly Cloudy,260,2012-10-01 11:17:00
7:23 AM,39.2,37.4,93,29.95,1.5,WSW,3.5,-,N/A,,Mostly Cloudy,250,2012-10-01 11:23:00
7:30 AM,39.2,37.4,93,29.95,0.2,WSW,3.5,-,N/A,Fog,Fog,240,2012-10-01 11:30:00
7:53 AM,39.9,39.0,97,29.97,1.0,WSW,3.5,-,N/A,,Mist,240,2012-10-01 11:53:00
8:13 AM,39.2,39.2,100,29.96,0.8,Calm,Calm,-,N/A,,Mist,0,2012-10-01 12:13:00
8:18 AM,39.2,39.2,100,29.96,0.8,Calm,Calm,-,N/A,,Mist,0,2012-10-01 12:18:00
8:22 AM,41.0,39.2,93,29.96,1.0,Calm,Calm,-,N/A,,Clear,0,2012-10-01 12:22:00
8:26 AM,41.0,39.2,93,29.96,7.0,Calm,Calm,-,N/A,,Clear,0,2012-10-01 12:26:00
8:44 AM,42.8,41.0,93,29.96,10.0,Calm,Calm,-,N/A,,Partly Cloudy,0,2012-10-01 12:44:00
8:53 AM,44.1,42.1,93,29.97,10.0,SW,3.5,-,N/A,,Clear,230,2012-10-01 12:53:00
9:53 AM,50.0,46.9,89,29.98,10.0,SSW,3.5,-,N/A,,Clear,210,2012-10-01 13:53:00
10:53 AM,55.9,48.0,75,29.97,10.0,SW,5.8,-,N/A,,Clear,230,2012-10-01 14:53:00
11:53 AM,61.0,46.9,60,29.96,10.0,Variable,3.5,-,N/A,,Clear,0,2012-10-01 15:53:00
12:53 PM,64.0,44.1,48,29.94,10.0,Variable,4.6,-,N/A,,Clear,0,2012-10-01 16:53:00
1:53 PM,64.9,44.1,47,29.92,10.0,West,4.6,-,N/A,,Clear,280,2012-10-01 17:53:00
2:53 PM,64.9,42.1,43,29.90,10.0,Variable,4.6,-,N/A,,Clear,0,2012-10-01 18:53:00
3:53 PM,64.9,42.1,43,29.89,10.0,WSW,3.5,-,N/A,,Clear,240,2012-10-01 19:53:00
4:53 PM,64.9,43.0,45,29.88,10.0,Calm,Calm,-,N/A,,Clear,0,2012-10-01 20:53:00
5:53 PM,64.9,42.1,43,29.88,10.0,Calm,Calm,-,N/A,,Clear,0,2012-10-01 21:53:00
6:53 PM,61.0,45.0,56,29.89,10.0,SSE,3.5,-,N/A,,Clear,160,2012-10-01 22:53:00
7:53 PM,55.9,45.0,67,29.89,10.0,SE,3.5,-,N/A,,Clear,140,2012-10-01 23:53:00
8:53 PM,55.0,45.0,69,29.89,10.0,SE,3.5,-,N/A,,Clear,130,2012-10-02 00:53:00
9:53 PM,54.0,43.0,66,29.89,10.0,Calm,Calm,-,N/A,,Clear,0,2012-10-02 01:53:00
10:53 PM,50.0,44.1,80,29.89,10.0,SE,4.6,-,N/A,,Clear,130,2012-10-02 02:53:00
11:53 PM,53.1,44.1,71,29.89,10.0,Calm,Calm,-,N/A,,Clear,0,2012-10-02 03:53:00